Terminal Aerodrome Forecast
Issued by NWS Bismarck, ND

Home | Current Version | Previous Version | Graphics & Text | Print | Product List | Glossary On
Versions: 1 2 3 4 5 6 7 8 9 10 11 12 13 14 15
969
FTUS43 KBIS 271122
TAFISN
TAF
KISN 271122Z 2712/2812 19011KT P6SM FEW110 SCT200
     FM272000 27020G28KT P6SM BKN200
     FM280100 31017KT P6SM VCTS BKN120CB
     FM280300 33014KT P6SM VCSH BKN120
     FM280500 32011KT P6SM SCT150=

USA.gov is the U.S. government's official web portal to all federal, state and local government web resources and services.